Saturday, August 30, 2014
06:17 UTC
  |  Log In   |  Register Free
Airport Search:

Enid Woodring Regional Airport
(KWDG)

FAA data valid effective July 24, 2014 until September 18, 2014 (unless otherwise noted).

 
 
 
 
 
 
 
 
 
 
 
 
 
 

Current Aviation Weather for Enid Woodring Regional Airport (KWDG)

The most recent METAR observation for KWDG was updated at: 0555 UTC
METAR Summary (Translated METAR)
KWDG
300555Z AUTO 16005KT 10SM CLR 20/18 A2991 RMK AO2
KEND
(6.6 nm SW from KWDG)
300558Z AUTO 18007KT 10SM CLR 22/22 A2992 RMK AO2 SLP120 T02230223 10280 20223 52010 $
TAF Summary (Translated TAF)
KEND
(6.6 nm SW from KWDG)
2923/3024 15012KT 9999 SCT040 SCT090 BKN150 QNH2983INS BECMG 3003/3004 VRB06KT 9999 FEW060 QNH2990INS BECMG 3014/3015 13007KT 9999 FEW070 FEW200 QNH2987INS TX32/3021Z TN20/3011Z AMD 292356
  Airport Weather Conditions for KWDG

 Current Weather at WDG
68° F
Fair
South winds at 5.8 mph
WDG NOAA Radar

Pressure: 29.91 in
Humidity: 88%
Wind: South at 5.8 MPH (5 KT)
Dew Point: 64.4°F
Visibility: 10.00 mi


Airport Weather Forecast for KWDG

Translated METAR and TAF for KWDG
Translated METAR for KWDG (0611 UTC 30 August 2014)
found at http://aviationweather.gov/adds/metars/
 
METAR text: KWDG 300555Z AUTO 16005KT 10SM CLR 20/18 A2991 RMK AO2
Conditions at: KWDG (ENID/WOODRING , OK, US) observed 0555 UTC 30 August 2014
Temperature: 20.0°C (68°F)
Dewpoint: 18.0°C (64°F) [RH = 88%]
Pressure (altimeter): 29.91 inches Hg (1013.0 mb)
Winds: from the SSE (160 degrees) at 6 MPH (5 knots; 2.6 m/s)
Visibility: 10 or more miles (16+ km)
Ceiling: at least 12,000 feet AGL
Clouds: sky clear below 12,000 feet AGL
Weather: automated observation with no human augmentation;
there may or may not be significant weather present at this time
Translated TAF for KWDG

There is no translated TAF available for this airport

Find All Airport Services Find A Hotel Find A Rental Car Find A Golf Course Find A Restaurant $100 Hamburger



FBO's on the Field
FBO Company Facility Photos Services Transportation Aviation Fuel Prices: Prices include tax
Catering Weather Repair Courtesy Rental Type 100LL JetA JetA+ MOGAS 8087
 
Enid Woodring Regional Airport

This FBO has not yet been rated
FS:Phillips66
Last Updated: Aug-05
Login to update fuel prices
SS:
Contact Enid Woodring Regional AirportMore FBO Information
 
Add another FBO Facility Photos Catering Weather Repair Courtesy Rental Type 100LL JetA JetA+ MOGAS 8087
Services Transportation Aviation Fuel Prices: Prices include tax


GlobalAir.com Airport Resource Center model-print
model-print
model-print
model-print